sensor_id;sensor_type;location;lat;lon;timestamp;pressure;altitude;pressure_sealevel;temperature;humidity
65659;BME280;60181;53.258;6.932;2022-09-21T00:04:07;102774.15;;;17.05;56.70
65659;BME280;60181;53.258;6.932;2022-09-21T00:08:35;102775.93;;;17.04;56.75
65659;BME280;60181;53.258;6.932;2022-09-21T00:13:03;102776.18;;;17.03;56.83
65659;BME280;60181;53.258;6.932;2022-09-21T00:17:31;102777.15;;;17.01;56.64
65659;BME280;60181;53.258;6.932;2022-09-21T00:21:59;102777.77;;;17.00;56.70
65659;BME280;60181;53.258;6.932;2022-09-21T00:26:27;102778.48;;;16.99;56.69
65659;BME280;60181;53.258;6.932;2022-09-21T00:30:58;102779.11;;;16.98;56.71
65659;BME280;60181;53.258;6.932;2022-09-21T00:35:23;102779.90;;;16.96;56.65
65659;BME280;60181;53.258;6.932;2022-09-21T00:39:51;102779.70;;;16.96;56.74
65659;BME280;60181;53.258;6.932;2022-09-21T00:48:47;102778.28;;;16.95;56.45
65659;BME280;60181;53.258;6.932;2022-09-21T00:53:15;102777.67;;;16.95;56.49
65659;BME280;60181;53.258;6.932;2022-09-21T00:57:43;102778.47;;;16.94;56.55
65659;BME280;60181;53.258;6.932;2022-09-21T01:02:11;102779.13;;;16.94;56.12
65659;BME280;60181;53.258;6.932;2022-09-21T01:06:39;102780.87;;;16.94;56.48
65659;BME280;60181;53.258;6.932;2022-09-21T01:11:21;102782.24;;;16.94;56.22
65659;BME280;60181;53.258;6.932;2022-09-21T01:33:31;102783.94;;;16.92;56.71
65659;BME280;60181;53.258;6.932;2022-09-21T01:37:59;102784.80;;;16.93;56.02
65659;BME280;60181;53.258;6.932;2022-09-21T01:42:23;102784.94;;;16.92;55.86
65659;BME280;60181;53.258;6.932;2022-09-21T01:46:51;102783.83;;;16.91;55.47
65659;BME280;60181;53.258;6.932;2022-09-21T01:51:19;102782.76;;;16.89;55.36
65659;BME280;60181;53.258;6.932;2022-09-21T01:55:47;102782.14;;;16.88;55.06
65659;BME280;60181;53.258;6.932;2022-09-21T02:00:15;102781.76;;;16.87;54.86
65659;BME280;60181;53.258;6.932;2022-09-21T02:04:43;102782.39;;;16.85;54.77
65659;BME280;60181;53.258;6.932;2022-09-21T02:09:10;102783.06;;;16.83;54.53
65659;BME280;60181;53.258;6.932;2022-09-21T02:13:39;102783.65;;;16.81;54.46
65659;BME280;60181;53.258;6.932;2022-09-21T02:18:09;102783.81;;;16.81;54.14
65659;BME280;60181;53.258;6.932;2022-09-21T02:22:40;102783.86;;;16.79;54.04
65659;BME280;60181;53.258;6.932;2022-09-21T02:27:04;102785.69;;;16.78;53.86
65659;BME280;60181;53.258;6.932;2022-09-21T02:31:47;102788.50;;;16.77;53.62
65659;BME280;60181;53.258;6.932;2022-09-21T02:36:06;102790.17;;;16.76;53.52
65659;BME280;60181;53.258;6.932;2022-09-21T02:44:56;102792.24;;;16.73;53.31
65659;BME280;60181;53.258;6.932;2022-09-21T02:49:32;102792.91;;;16.71;53.29
65659;BME280;60181;53.258;6.932;2022-09-21T02:53:50;102792.42;;;16.69;53.14
65659;BME280;60181;53.258;6.932;2022-09-21T02:58:18;102792.22;;;16.68;52.92
65659;BME280;60181;53.258;6.932;2022-09-21T03:02:46;102790.94;;;16.67;52.81
65659;BME280;60181;53.258;6.932;2022-09-21T03:07:15;102789.50;;;16.65;52.75
65659;BME280;60181;53.258;6.932;2022-09-21T03:11:42;102788.18;;;16.64;52.68
65659;BME280;60181;53.258;6.932;2022-09-21T03:16:10;102787.15;;;16.62;53.14
65659;BME280;60181;53.258;6.932;2022-09-21T03:20:39;102786.99;;;16.59;53.01
65659;BME280;60181;53.258;6.932;2022-09-21T03:25:07;102787.71;;;16.56;53.22
65659;BME280;60181;53.258;6.932;2022-09-21T03:29:34;102788.94;;;16.54;53.52
65659;BME280;60181;53.258;6.932;2022-09-21T03:34:02;102789.44;;;16.52;53.41
65659;BME280;60181;53.258;6.932;2022-09-21T03:38:30;102789.95;;;16.50;53.47
65659;BME280;60181;53.258;6.932;2022-09-21T03:42:58;102789.38;;;16.48;53.51
65659;BME280;60181;53.258;6.932;2022-09-21T03:47:26;102791.11;;;16.46;53.59
65659;BME280;60181;53.258;6.932;2022-09-21T03:51:54;102793.09;;;16.45;53.13
65659;BME280;60181;53.258;6.932;2022-09-21T03:56:22;102795.17;;;16.43;53.10
65659;BME280;60181;53.258;6.932;2022-09-21T04:00:50;102796.70;;;16.41;52.72
65659;BME280;60181;53.258;6.932;2022-09-21T04:05:18;102798.82;;;16.39;52.32
65659;BME280;60181;53.258;6.932;2022-09-21T04:09:46;102802.17;;;16.38;52.27
65659;BME280;60181;53.258;6.932;2022-09-21T04:14:14;102802.92;;;16.36;51.96
65659;BME280;60181;53.258;6.932;2022-09-21T04:18:42;102803.28;;;16.34;52.17
65659;BME280;60181;53.258;6.932;2022-09-21T04:23:10;102804.46;;;16.32;52.15
65659;BME280;60181;53.258;6.932;2022-09-21T04:27:38;102805.81;;;16.31;51.92
65659;BME280;60181;53.258;6.932;2022-09-21T04:32:06;102806.74;;;16.29;52.00
65659;BME280;60181;53.258;6.932;2022-09-21T04:36:34;102808.50;;;16.27;52.01
65659;BME280;60181;53.258;6.932;2022-09-21T04:41:02;102810.36;;;16.26;51.73
65659;BME280;60181;53.258;6.932;2022-09-21T04:45:30;102811.52;;;16.24;52.52
65659;BME280;60181;53.258;6.932;2022-09-21T04:49:58;102812.85;;;16.22;51.86
65659;BME280;60181;53.258;6.932;2022-09-21T04:54:26;102813.81;;;16.21;51.56
65659;BME280;60181;53.258;6.932;2022-09-21T04:58:54;102814.34;;;16.19;51.81
65659;BME280;60181;53.258;6.932;2022-09-21T05:03:23;102815.30;;;16.18;51.54
65659;BME280;60181;53.258;6.932;2022-09-21T05:07:50;102816.42;;;16.18;51.54
65659;BME280;60181;53.258;6.932;2022-09-21T05:12:18;102817.57;;;16.17;51.40
65659;BME280;60181;53.258;6.932;2022-09-21T05:16:46;102820.25;;;16.16;51.54
65659;BME280;60181;53.258;6.932;2022-09-21T05:21:14;102824.10;;;16.15;51.63
65659;BME280;60181;53.258;6.932;2022-09-21T05:25:42;102827.45;;;16.15;51.61
65659;BME280;60181;53.258;6.932;2022-09-21T05:30:11;102829.64;;;16.13;51.69
65659;BME280;60181;53.258;6.932;2022-09-21T05:39:06;102834.92;;;16.13;51.67
65659;BME280;60181;53.258;6.932;2022-09-21T05:43:41;102836.10;;;16.13;51.74
65659;BME280;60181;53.258;6.932;2022-09-21T05:57:04;102838.82;;;16.13;52.17
65659;BME280;60181;53.258;6.932;2022-09-21T06:05:54;102840.59;;;16.18;52.90
65659;BME280;60181;53.258;6.932;2022-09-21T06:10:22;102841.83;;;16.26;52.79
65659;BME280;60181;53.258;6.932;2022-09-21T06:14:50;102842.42;;;16.32;52.70
65659;BME280;60181;53.258;6.932;2022-09-21T06:19:18;102844.38;;;16.38;52.86
65659;BME280;60181;53.258;6.932;2022-09-21T06:23:46;102846.29;;;16.43;53.13
65659;BME280;60181;53.258;6.932;2022-09-21T06:28:14;102847.19;;;16.47;53.21
65659;BME280;60181;53.258;6.932;2022-09-21T06:32:42;102849.88;;;16.51;53.43
65659;BME280;60181;53.258;6.932;2022-09-21T06:37:10;102850.66;;;16.52;53.65
65659;BME280;60181;53.258;6.932;2022-09-21T06:41:38;102850.90;;;16.54;53.83
65659;BME280;60181;53.258;6.932;2022-09-21T06:46:06;102852.55;;;16.56;54.04
65659;BME280;60181;53.258;6.932;2022-09-21T06:50:34;102852.34;;;16.57;54.12
65659;BME280;60181;53.258;6.932;2022-09-21T06:55:02;102852.22;;;16.59;54.30
65659;BME280;60181;53.258;6.932;2022-09-21T06:59:30;102851.81;;;16.61;54.38
65659;BME280;60181;53.258;6.932;2022-09-21T07:03:58;102850.96;;;16.63;54.15
65659;BME280;60181;53.258;6.932;2022-09-21T07:08:26;102851.01;;;16.67;53.68
65659;BME280;60181;53.258;6.932;2022-09-21T07:12:54;102852.16;;;16.71;54.27
65659;BME280;60181;53.258;6.932;2022-09-21T07:17:22;102852.81;;;16.75;53.98
65659;BME280;60181;53.258;6.932;2022-09-21T07:21:53;102853.76;;;16.77;54.70
65659;BME280;60181;53.258;6.932;2022-09-21T07:26:18;102854.14;;;16.78;55.86
65659;BME280;60181;53.258;6.932;2022-09-21T07:30:46;102854.59;;;16.79;55.76
65659;BME280;60181;53.258;6.932;2022-09-21T07:35:14;102855.41;;;16.79;55.98
65659;BME280;60181;53.258;6.932;2022-09-21T07:39:42;102856.45;;;16.77;56.03
65659;BME280;60181;53.258;6.932;2022-09-21T07:44:10;102857.31;;;16.76;56.13
65659;BME280;60181;53.258;6.932;2022-09-21T07:48:38;102858.28;;;16.76;56.19
65659;BME280;60181;53.258;6.932;2022-09-21T07:53:06;102860.88;;;16.79;55.71
65659;BME280;60181;53.258;6.932;2022-09-21T07:57:34;102861.43;;;16.90;54.64
65659;BME280;60181;53.258;6.932;2022-09-21T08:02:02;102861.16;;;17.08;53.92
65659;BME280;60181;53.258;6.932;2022-09-21T08:06:30;102861.45;;;17.27;53.83
65659;BME280;60181;53.258;6.932;2022-09-21T08:11:02;102861.36;;;17.45;55.58
65659;BME280;60181;53.258;6.932;2022-09-21T08:15:26;102862.40;;;17.59;56.03
65659;BME280;60181;53.258;6.932;2022-09-21T08:19:54;102863.90;;;17.72;55.49
65659;BME280;60181;53.258;6.932;2022-09-21T08:24:22;102866.31;;;17.84;55.79
65659;BME280;60181;53.258;6.932;2022-09-21T08:28:51;102869.07;;;17.94;55.67
65659;BME280;60181;53.258;6.932;2022-09-21T08:33:18;102872.02;;;18.04;55.80
65659;BME280;60181;53.258;6.932;2022-09-21T08:37:46;102873.99;;;18.12;55.84
65659;BME280;60181;53.258;6.932;2022-09-21T08:42:29;102874.77;;;18.18;55.88
65659;BME280;60181;53.258;6.932;2022-09-21T08:46:42;102876.17;;;18.23;56.08
65659;BME280;60181;53.258;6.932;2022-09-21T08:51:11;102877.55;;;18.28;56.53
65659;BME280;60181;53.258;6.932;2022-09-21T08:55:38;102879.14;;;18.31;56.26
65659;BME280;60181;53.258;6.932;2022-09-21T09:00:06;102879.98;;;18.34;56.34
65659;BME280;60181;53.258;6.932;2022-09-21T09:04:38;102880.96;;;18.37;56.37
65659;BME280;60181;53.258;6.932;2022-09-21T09:13:55;102884.00;;;18.39;56.75
65659;BME280;60181;53.258;6.932;2022-09-21T09:22:39;102884.58;;;18.39;56.65
65659;BME280;60181;53.258;6.932;2022-09-21T09:26:55;102885.08;;;18.39;57.00
65659;BME280;60181;53.258;6.932;2022-09-21T09:31:24;102886.33;;;18.39;56.73
65659;BME280;60181;53.258;6.932;2022-09-21T09:35:57;102886.43;;;18.37;57.54
65659;BME280;60181;53.258;6.932;2022-09-21T09:40:21;102886.94;;;18.35;56.94
65659;BME280;60181;53.258;6.932;2022-09-21T09:44:50;102887.44;;;18.35;56.95
65659;BME280;60181;53.258;6.932;2022-09-21T09:49:27;102888.10;;;18.34;57.60
65659;BME280;60181;53.258;6.932;2022-09-21T09:53:42;102887.99;;;18.34;57.40
65659;BME280;60181;53.258;6.932;2022-09-21T09:58:15;102887.45;;;18.32;57.42
65659;BME280;60181;53.258;6.932;2022-09-21T10:07:08;102887.15;;;18.30;57.51
65659;BME280;60181;53.258;6.932;2022-09-21T10:11:35;102886.76;;;18.29;57.74
65659;BME280;60181;53.258;6.932;2022-09-21T10:16:10;102885.47;;;18.27;57.81
65659;BME280;60181;53.258;6.932;2022-09-21T10:20:30;102884.53;;;18.26;57.71
65659;BME280;60181;53.258;6.932;2022-09-21T10:24:58;102883.06;;;18.24;57.44
65659;BME280;60181;53.258;6.932;2022-09-21T10:34:11;102879.70;;;18.23;57.49
65659;BME280;60181;53.258;6.932;2022-09-21T10:38:24;102878.92;;;18.21;57.63
65659;BME280;60181;53.258;6.932;2022-09-21T10:42:51;102878.06;;;18.20;57.59
65659;BME280;60181;53.258;6.932;2022-09-21T10:47:19;102877.06;;;18.20;57.53
65659;BME280;60181;53.258;6.932;2022-09-21T10:51:47;102876.53;;;18.19;57.58
65659;BME280;60181;53.258;6.932;2022-09-21T10:56:15;102874.93;;;18.19;57.69
65659;BME280;60181;53.258;6.932;2022-09-21T11:00:43;102872.95;;;18.16;57.95
65659;BME280;60181;53.258;6.932;2022-09-21T11:05:11;102872.19;;;18.13;57.98
65659;BME280;60181;53.258;6.932;2022-09-21T11:09:40;102871.52;;;18.10;57.92
65659;BME280;60181;53.258;6.932;2022-09-21T11:14:09;102870.46;;;18.07;57.95
65659;BME280;60181;53.258;6.932;2022-09-21T11:23:04;102868.13;;;18.07;57.55
65659;BME280;60181;53.258;6.932;2022-09-21T11:27:32;102866.75;;;18.08;57.44
65659;BME280;60181;53.258;6.932;2022-09-21T11:36:48;102864.22;;;18.10;57.99
65659;BME280;60181;53.258;6.932;2022-09-21T11:40:58;102862.76;;;18.11;58.08
65659;BME280;60181;53.258;6.932;2022-09-21T11:50:06;102859.97;;;18.11;58.67
65659;BME280;60181;53.258;6.932;2022-09-21T11:58:53;102856.47;;;18.08;59.10
65659;BME280;60181;53.258;6.932;2022-09-21T12:08:03;102853.44;;;18.09;59.00
65659;BME280;60181;53.258;6.932;2022-09-21T12:16:42;102847.61;;;18.11;59.08
65659;BME280;60181;53.258;6.932;2022-09-21T12:21:11;102844.92;;;18.11;59.39
65659;BME280;60181;53.258;6.932;2022-09-21T12:25:36;102842.22;;;18.11;59.14
65659;BME280;60181;53.258;6.932;2022-09-21T12:30:03;102840.34;;;18.12;59.10
65659;BME280;60181;53.258;6.932;2022-09-21T12:34:33;102838.27;;;18.12;58.85
65659;BME280;60181;53.258;6.932;2022-09-21T12:39:00;102835.42;;;18.12;59.02
65659;BME280;60181;53.258;6.932;2022-09-21T12:43:34;102833.35;;;18.12;58.90
65659;BME280;60181;53.258;6.932;2022-09-21T12:48:08;102829.55;;;18.09;59.08
65659;BME280;60181;53.258;6.932;2022-09-21T12:52:23;102826.72;;;18.06;59.15
65659;BME280;60181;53.258;6.932;2022-09-21T12:56:55;102824.00;;;18.03;59.24
65659;BME280;60181;53.258;6.932;2022-09-21T13:01:26;102820.75;;;18.01;59.33
65659;BME280;60181;53.258;6.932;2022-09-21T13:06:03;102818.37;;;17.98;59.37
65659;BME280;60181;53.258;6.932;2022-09-21T13:14:45;102813.98;;;17.94;59.54
65659;BME280;60181;53.258;6.932;2022-09-21T13:19:18;102811.78;;;17.93;59.42
65659;BME280;60181;53.258;6.932;2022-09-21T13:23:37;102809.52;;;17.92;59.33
65659;BME280;60181;53.258;6.932;2022-09-21T13:32:51;102804.76;;;17.91;59.42
65659;BME280;60181;53.258;6.932;2022-09-21T13:37:22;102802.64;;;17.92;59.26
65659;BME280;60181;53.258;6.932;2022-09-21T13:41:29;102800.65;;;17.92;59.44
65659;BME280;60181;53.258;6.932;2022-09-21T13:45:57;102798.99;;;17.91;59.53
65659;BME280;60181;53.258;6.932;2022-09-21T13:50:35;102796.64;;;17.90;59.56
65659;BME280;60181;53.258;6.932;2022-09-21T13:59:22;102793.96;;;17.89;59.86
65659;BME280;60181;53.258;6.932;2022-09-21T14:03:51;102791.47;;;17.90;59.75
65659;BME280;60181;53.258;6.932;2022-09-21T14:08:22;102790.20;;;17.91;60.01
65659;BME280;60181;53.258;6.932;2022-09-21T14:12:45;102787.99;;;17.92;59.97
65659;BME280;60181;53.258;6.932;2022-09-21T14:30:37;102781.23;;;17.93;60.11
65659;BME280;60181;53.258;6.932;2022-09-21T14:35:08;102780.40;;;17.93;60.24
65659;BME280;60181;53.258;6.932;2022-09-21T14:39:34;102779.25;;;17.93;60.22
65659;BME280;60181;53.258;6.932;2022-09-21T14:44:01;102777.08;;;17.93;60.22
65659;BME280;60181;53.258;6.932;2022-09-21T14:53:09;102773.51;;;17.94;60.06
65659;BME280;60181;53.258;6.932;2022-09-21T14:57:36;102770.86;;;17.94;60.10
65659;BME280;60181;53.258;6.932;2022-09-21T15:02:00;102767.58;;;17.94;60.02
65659;BME280;60181;53.258;6.932;2022-09-21T15:06:35;102763.77;;;17.95;59.85
65659;BME280;60181;53.258;6.932;2022-09-21T15:11:08;102759.48;;;17.95;59.86
65659;BME280;60181;53.258;6.932;2022-09-21T15:19:45;102750.04;;;17.96;59.80
65659;BME280;60181;53.258;6.932;2022-09-21T15:24:32;102745.23;;;17.96;59.83
65659;BME280;60181;53.258;6.932;2022-09-21T15:28:42;102741.33;;;17.96;59.84
65659;BME280;60181;53.258;6.932;2022-09-21T15:33:09;102739.01;;;17.96;59.86
65659;BME280;60181;53.258;6.932;2022-09-21T15:37:37;102737.68;;;17.96;59.86
65659;BME280;60181;53.258;6.932;2022-09-21T15:42:13;102735.78;;;17.95;59.95
65659;BME280;60181;53.258;6.932;2022-09-21T15:46:33;102733.29;;;17.95;59.94
65659;BME280;60181;53.258;6.932;2022-09-21T15:55:29;102729.93;;;17.95;59.95
65659;BME280;60181;53.258;6.932;2022-09-21T15:59:59;102729.28;;;17.95;60.11
65659;BME280;60181;53.258;6.932;2022-09-21T16:04:26;102729.36;;;17.94;60.18
65659;BME280;60181;53.258;6.932;2022-09-21T16:08:53;102728.53;;;17.94;60.40
65659;BME280;60181;53.258;6.932;2022-09-21T16:13:22;102727.84;;;17.94;60.63
65659;BME280;60181;53.258;6.932;2022-09-21T16:17:53;102726.92;;;17.94;60.71
65659;BME280;60181;53.258;6.932;2022-09-21T16:26:55;102723.38;;;17.92;60.81
65659;BME280;60181;53.258;6.932;2022-09-21T16:31:27;102721.86;;;17.91;60.59
65659;BME280;60181;53.258;6.932;2022-09-21T16:35:41;102720.78;;;17.90;60.34
65659;BME280;60181;53.258;6.932;2022-09-21T16:40:09;102719.84;;;17.89;60.42
65659;BME280;60181;53.258;6.932;2022-09-21T16:44:37;102720.39;;;17.88;60.53
65659;BME280;60181;53.258;6.932;2022-09-21T16:49:07;102720.06;;;17.88;60.18
65659;BME280;60181;53.258;6.932;2022-09-21T16:53:33;102719.78;;;17.86;60.43
65659;BME280;60181;53.258;6.932;2022-09-21T16:58:01;102720.74;;;17.86;60.23
65659;BME280;60181;53.258;6.932;2022-09-21T17:02:29;102720.63;;;17.85;60.21
65659;BME280;60181;53.258;6.932;2022-09-21T17:06:57;102718.27;;;17.84;60.21
65659;BME280;60181;53.258;6.932;2022-09-21T17:11:25;102717.08;;;17.82;60.29
65659;BME280;60181;53.258;6.932;2022-09-21T17:15:53;102715.61;;;17.80;60.40
65659;BME280;60181;53.258;6.932;2022-09-21T17:20:32;102714.05;;;17.78;60.36
65659;BME280;60181;53.258;6.932;2022-09-21T17:24:49;102714.11;;;17.76;60.46
65659;BME280;60181;53.258;6.932;2022-09-21T17:29:21;102714.78;;;17.75;60.49
65659;BME280;60181;53.258;6.932;2022-09-21T17:33:45;102715.30;;;17.73;60.47
65659;BME280;60181;53.258;6.932;2022-09-21T17:38:13;102716.59;;;17.71;60.49
65659;BME280;60181;53.258;6.932;2022-09-21T17:42:42;102717.81;;;17.70;60.53
65659;BME280;60181;53.258;6.932;2022-09-21T17:47:19;102719.41;;;17.68;60.55
65659;BME280;60181;53.258;6.932;2022-09-21T17:51:37;102720.86;;;17.67;60.54
65659;BME280;60181;53.258;6.932;2022-09-21T18:05:03;102721.75;;;17.63;60.63
65659;BME280;60181;53.258;6.932;2022-09-21T18:09:30;102722.80;;;17.62;60.68
65659;BME280;60181;53.258;6.932;2022-09-21T18:14:01;102723.44;;;17.61;60.63
65659;BME280;60181;53.258;6.932;2022-09-21T18:18:37;102723.49;;;17.61;60.62
65659;BME280;60181;53.258;6.932;2022-09-21T18:27:21;102724.78;;;17.59;60.60
65659;BME280;60181;53.258;6.932;2022-09-21T18:36:20;102725.40;;;17.58;60.58
65659;BME280;60181;53.258;6.932;2022-09-21T18:40:58;102726.28;;;17.57;60.63
65659;BME280;60181;53.258;6.932;2022-09-21T18:45:16;102726.83;;;17.56;60.60
65659;BME280;60181;53.258;6.932;2022-09-21T18:49:46;102727.58;;;17.55;60.62
65659;BME280;60181;53.258;6.932;2022-09-21T18:54:13;102727.47;;;17.54;60.63
65659;BME280;60181;53.258;6.932;2022-09-21T18:58:38;102727.19;;;17.54;60.63
65659;BME280;60181;53.258;6.932;2022-09-21T19:03:06;102727.06;;;17.53;60.62
65659;BME280;60181;53.258;6.932;2022-09-21T19:07:35;102727.72;;;17.52;60.98
65659;BME280;60181;53.258;6.932;2022-09-21T19:12:19;102728.61;;;17.52;60.64
65659;BME280;60181;53.258;6.932;2022-09-21T19:16:33;102729.85;;;17.51;60.71
65659;BME280;60181;53.258;6.932;2022-09-21T19:20:59;102730.18;;;17.51;60.62
65659;BME280;60181;53.258;6.932;2022-09-21T19:30:09;102731.71;;;17.51;60.66
65659;BME280;60181;53.258;6.932;2022-09-21T19:34:21;102733.30;;;17.50;60.57
65659;BME280;60181;53.258;6.932;2022-09-21T19:38:49;102736.36;;;17.50;60.61
65659;BME280;60181;53.258;6.932;2022-09-21T19:47:48;102739.31;;;17.49;60.60
65659;BME280;60181;53.258;6.932;2022-09-21T19:52:17;102739.31;;;17.48;60.59
65659;BME280;60181;53.258;6.932;2022-09-21T19:56:44;102739.28;;;17.48;60.56
65659;BME280;60181;53.258;6.932;2022-09-21T20:01:09;102739.77;;;17.47;60.59
65659;BME280;60181;53.258;6.932;2022-09-21T20:14:43;102744.59;;;17.46;60.56
65659;BME280;60181;53.258;6.932;2022-09-21T20:23:29;102746.25;;;17.45;60.54
65659;BME280;60181;53.258;6.932;2022-09-21T20:27:57;102747.71;;;17.45;60.53
65659;BME280;60181;53.258;6.932;2022-09-21T20:32:25;102748.86;;;17.44;60.54
65659;BME280;60181;53.258;6.932;2022-09-21T20:36:53;102749.17;;;17.43;60.62
65659;BME280;60181;53.258;6.932;2022-09-21T20:41:21;102749.22;;;17.42;60.59
65659;BME280;60181;53.258;6.932;2022-09-21T20:45:49;102748.88;;;17.42;60.59
65659;BME280;60181;53.258;6.932;2022-09-21T20:50:17;102748.58;;;17.43;60.71
65659;BME280;60181;53.258;6.932;2022-09-21T20:54:45;102748.34;;;17.43;59.64
65659;BME280;60181;53.258;6.932;2022-09-21T20:59:13;102748.07;;;17.40;59.47
65659;BME280;60181;53.258;6.932;2022-09-21T21:03:41;102747.22;;;17.37;59.50
65659;BME280;60181;53.258;6.932;2022-09-21T21:08:09;102745.65;;;17.34;59.26
65659;BME280;60181;53.258;6.932;2022-09-21T21:12:37;102744.65;;;17.32;59.00
65659;BME280;60181;53.258;6.932;2022-09-21T21:17:05;102744.45;;;17.30;59.01
65659;BME280;60181;53.258;6.932;2022-09-21T21:21:33;102743.97;;;17.28;58.87
65659;BME280;60181;53.258;6.932;2022-09-21T21:26:04;102743.98;;;17.25;58.99
65659;BME280;60181;53.258;6.932;2022-09-21T21:30:29;102744.58;;;17.24;58.75
65659;BME280;60181;53.258;6.932;2022-09-21T21:34:57;102744.42;;;17.22;58.77
65659;BME280;60181;53.258;6.932;2022-09-21T21:39:25;102743.31;;;17.20;58.60
65659;BME280;60181;53.258;6.932;2022-09-21T21:43:53;102742.25;;;17.18;58.71
65659;BME280;60181;53.258;6.932;2022-09-21T21:48:21;102740.72;;;17.17;58.65
65659;BME280;60181;53.258;6.932;2022-09-21T21:52:49;102737.59;;;17.15;58.54
65659;BME280;60181;53.258;6.932;2022-09-21T21:57:17;102736.15;;;17.14;58.67
65659;BME280;60181;53.258;6.932;2022-09-21T22:01:45;102734.45;;;17.13;58.46
65659;BME280;60181;53.258;6.932;2022-09-21T22:06:13;102732.76;;;17.11;58.67
65659;BME280;60181;53.258;6.932;2022-09-21T22:10:46;102730.82;;;17.10;58.82
65659;BME280;60181;53.258;6.932;2022-09-21T22:15:09;102729.63;;;17.09;58.82
65659;BME280;60181;53.258;6.932;2022-09-21T22:19:37;102729.33;;;17.10;59.47
65659;BME280;60181;53.258;6.932;2022-09-21T22:24:05;102728.50;;;17.10;58.87
65659;BME280;60181;53.258;6.932;2022-09-21T22:28:33;102728.17;;;17.10;58.87
65659;BME280;60181;53.258;6.932;2022-09-21T22:33:01;102727.50;;;17.10;58.90
65659;BME280;60181;53.258;6.932;2022-09-21T22:37:29;102726.81;;;17.09;58.79
65659;BME280;60181;53.258;6.932;2022-09-21T22:41:57;102725.45;;;17.08;58.74
65659;BME280;60181;53.258;6.932;2022-09-21T22:46:25;102724.60;;;17.07;58.42
65659;BME280;60181;53.258;6.932;2022-09-21T22:50:53;102723.39;;;17.06;58.53
65659;BME280;60181;53.258;6.932;2022-09-21T22:55:21;102722.86;;;17.05;58.41
65659;BME280;60181;53.258;6.932;2022-09-21T22:59:49;102723.16;;;17.03;58.52
65659;BME280;60181;53.258;6.932;2022-09-21T23:04:17;102722.46;;;17.02;58.54
65659;BME280;60181;53.258;6.932;2022-09-21T23:08:48;102722.38;;;17.02;58.38
65659;BME280;60181;53.258;6.932;2022-09-21T23:13:13;102720.76;;;17.01;58.38
65659;BME280;60181;53.258;6.932;2022-09-21T23:17:41;102718.32;;;17.00;58.25
65659;BME280;60181;53.258;6.932;2022-09-21T23:22:09;102716.31;;;16.99;57.98
65659;BME280;60181;53.258;6.932;2022-09-21T23:26:37;102714.78;;;16.98;57.89
65659;BME280;60181;53.258;6.932;2022-09-21T23:31:06;102714.34;;;16.97;57.73
65659;BME280;60181;53.258;6.932;2022-09-21T23:35:33;102714.05;;;16.96;57.57
65659;BME280;60181;53.258;6.932;2022-09-21T23:40:01;102712.94;;;16.95;57.35
65659;BME280;60181;53.258;6.932;2022-09-21T23:44:29;102710.84;;;16.94;57.37
65659;BME280;60181;53.258;6.932;2022-09-21T23:48:57;102708.33;;;16.93;57.20
65659;BME280;60181;53.258;6.932;2022-09-21T23:53:25;102706.21;;;16.92;56.96
65659;BME280;60181;53.258;6.932;2022-09-21T23:57:53;102704.61;;;16.91;57.34
